createdAt,value
2023-03-03T00:01:41.946Z,18.37
2023-03-03T00:04:10.174Z,17.23
2023-03-03T00:06:38.365Z,17.73
2023-03-03T00:09:06.726Z,16.83
2023-03-03T00:11:34.896Z,18.33
2023-03-03T00:14:03.275Z,17.30
2023-03-03T00:16:36.632Z,16.97
2023-03-03T00:19:15.324Z,17.97
2023-03-03T00:21:46.185Z,16.67
2023-03-03T00:24:21.247Z,17.17
2023-03-03T00:26:51.548Z,16.43
2023-03-03T00:29:32.036Z,16.57
2023-03-03T00:32:28.088Z,14.67
2023-03-03T00:35:04.395Z,14.90
2023-03-03T00:37:34.931Z,14.47
2023-03-03T00:40:25.259Z,14.07
2023-03-03T00:42:55.555Z,13.57
2023-03-03T00:45:41.504Z,14.23
2023-03-03T00:48:24.885Z,13.73
2023-03-03T00:50:56.103Z,13.10
2023-03-03T00:53:26.280Z,13.53
2023-03-03T00:55:55.352Z,14.27
2023-03-03T00:58:25.687Z,13.77
2023-03-03T01:00:56.857Z,12.43
2023-03-03T01:03:26.928Z,12.87
2023-03-03T01:05:56.760Z,13.87
2023-03-03T01:08:25.919Z,13.50
2023-03-03T01:10:57.153Z,14.10
2023-03-03T01:13:28.314Z,14.40
2023-03-03T01:15:56.739Z,13.57
2023-03-03T01:18:25.141Z,14.17
2023-03-03T01:20:53.560Z,13.60
2023-03-03T01:23:23.473Z,13.23
2023-03-03T01:25:51.844Z,12.57
2023-03-03T01:28:20.185Z,13.63
2023-03-03T01:30:48.728Z,13.63
2023-03-03T01:33:17.136Z,14.33
2023-03-03T01:35:46.151Z,14.43
2023-03-03T01:38:14.672Z,14.43
2023-03-03T01:40:44.453Z,14.50
2023-03-03T01:43:16.276Z,14.67
2023-03-03T01:46:36.405Z,14.67
2023-03-03T01:49:08.925Z,15.33
2023-03-03T01:51:41.314Z,16.17
2023-03-03T01:54:15.822Z,17.10
2023-03-03T01:56:45.891Z,16.47
2023-03-03T01:59:19.894Z,16.07
2023-03-03T02:01:49.500Z,16.70
2023-03-03T02:04:19.134Z,16.87
2023-03-03T02:06:51.910Z,16.10
2023-03-03T02:09:26.188Z,17.93
2023-03-03T02:12:00.850Z,16.40
2023-03-03T02:14:29.056Z,17.33
2023-03-03T02:16:57.400Z,17.00
2023-03-03T02:19:34.704Z,17.30
2023-03-03T02:22:03.868Z,16.80
2023-03-03T02:24:40.187Z,16.57
2023-03-03T02:27:10.197Z,17.10
2023-03-03T02:29:38.552Z,17.43
2023-03-03T02:32:07.110Z,17.73
2023-03-03T02:34:47.853Z,16.70
2023-03-03T02:37:16.446Z,16.63
2023-03-03T02:39:45.290Z,17.13
2023-03-03T02:42:19.765Z,17.23
2023-03-03T02:44:53.759Z,19.27
2023-03-03T02:47:22.059Z,18.53
2023-03-03T02:49:50.383Z,18.57
2023-03-03T02:52:19.193Z,17.50
2023-03-03T02:54:47.557Z,18.07
2023-03-03T02:57:17.310Z,18.80
2023-03-03T02:59:45.648Z,18.97
2023-03-03T03:02:13.966Z,17.20
2023-03-03T03:04:42.607Z,18.10
2023-03-03T03:07:11.900Z,18.33
2023-03-03T03:09:40.296Z,17.93
2023-03-03T03:12:08.876Z,18.07
2023-03-03T03:14:38.967Z,19.90
2023-03-03T03:17:07.225Z,17.07
2023-03-03T03:19:35.687Z,18.23
2023-03-03T03:22:04.028Z,18.07
2023-03-03T03:24:32.344Z,18.67
2023-03-03T03:27:00.794Z,18.63
2023-03-03T03:29:29.224Z,19.27
2023-03-03T03:31:59.078Z,19.90
2023-03-03T03:34:27.425Z,19.83
2023-03-03T03:36:55.880Z,18.40
2023-03-03T03:39:24.314Z,18.70
2023-03-03T03:41:52.810Z,20.23
2023-03-03T03:44:21.099Z,18.60
2023-03-03T03:46:49.959Z,18.93
2023-03-03T03:49:20.919Z,20.07
2023-03-03T03:51:49.474Z,19.93
2023-03-03T03:54:17.782Z,19.87
2023-03-03T03:56:46.183Z,19.07
2023-03-03T03:59:14.583Z,18.63
2023-03-03T04:01:42.992Z,18.10
2023-03-03T04:04:12.388Z,18.53
2023-03-03T04:06:42.282Z,19.17
2023-03-03T04:09:10.599Z,18.37
2023-03-03T04:11:39.019Z,19.20
2023-03-03T04:14:07.539Z,18.93
2023-03-03T04:16:35.872Z,19.03
2023-03-03T04:19:04.705Z,18.33
2023-03-03T04:21:33.152Z,17.97
2023-03-03T04:24:02.951Z,17.17
2023-03-03T04:26:32.399Z,17.40
2023-03-03T04:29:01.761Z,17.60
2023-03-03T04:31:30.030Z,16.83
2023-03-03T04:33:58.303Z,16.77
2023-03-03T04:36:26.902Z,15.70
2023-03-03T04:38:55.209Z,15.93
2023-03-03T04:41:25.014Z,15.97
2023-03-03T04:43:54.284Z,14.90
2023-03-03T04:46:22.565Z,14.50
2023-03-03T04:48:50.834Z,14.60
2023-03-03T04:51:19.056Z,14.97
2023-03-03T04:53:47.460Z,15.87
2023-03-03T04:56:15.886Z,16.30
2023-03-03T04:58:45.771Z,15.80
2023-03-03T05:01:15.530Z,14.83
2023-03-03T05:03:44.030Z,14.93
2023-03-03T05:06:12.244Z,15.23
2023-03-03T05:08:40.490Z,15.20
2023-03-03T05:11:08.591Z,15.20
2023-03-03T05:13:36.655Z,15.30
2023-03-03T05:16:06.664Z,15.67
2023-03-03T05:18:34.745Z,16.03
2023-03-03T05:21:02.838Z,15.43
2023-03-03T05:23:31.309Z,16.50
2023-03-03T05:25:59.335Z,16.17
2023-03-03T05:28:27.452Z,16.37
2023-03-03T05:30:55.482Z,16.73
2023-03-03T05:33:24.923Z,16.20
2023-03-03T05:35:55.698Z,15.23
2023-03-03T05:38:24.214Z,15.30
2023-03-03T05:40:52.439Z,14.80
2023-03-03T05:43:20.611Z,15.03
2023-03-03T05:45:48.641Z,14.63
2023-03-03T05:48:16.691Z,13.73
2023-03-03T05:50:46.183Z,13.30
2023-03-03T05:53:14.363Z,14.10
2023-03-03T05:55:42.422Z,14.00
2023-03-03T05:58:10.532Z,13.33
2023-03-03T06:00:38.651Z,13.40
2023-03-03T06:03:06.675Z,13.47
2023-03-03T06:05:34.785Z,13.27
2023-03-03T06:08:04.387Z,13.10
2023-03-03T06:10:32.439Z,13.50
2023-03-03T06:13:00.918Z,15.03
2023-03-03T06:15:29.114Z,14.53
2023-03-03T06:17:57.359Z,13.83
2023-03-03T06:20:25.474Z,13.50
2023-03-03T06:22:53.662Z,13.57
2023-03-03T06:25:23.373Z,14.30
2023-03-03T06:27:51.560Z,14.00
2023-03-03T06:30:20.058Z,13.77
2023-03-03T06:32:48.456Z,12.27
2023-03-03T06:35:18.339Z,12.13
2023-03-03T06:37:46.465Z,12.00
2023-03-03T06:40:15.337Z,12.47
2023-03-03T06:42:44.969Z,12.07
2023-03-03T06:45:13.766Z,12.17
2023-03-03T06:47:42.215Z,12.07
2023-03-03T06:50:12.655Z,12.57
2023-03-03T06:52:40.775Z,13.13
2023-03-03T06:55:14.764Z,13.33
2023-03-03T06:57:44.385Z,13.97
2023-03-03T07:00:18.330Z,13.83
2023-03-03T07:02:46.450Z,13.57
2023-03-03T07:05:18.122Z,15.60
2023-03-03T07:07:46.681Z,13.97
2023-03-03T07:10:23.243Z,12.93
2023-03-03T07:12:53.037Z,14.20
2023-03-03T07:15:25.086Z,13.47
2023-03-03T07:17:58.276Z,12.07
2023-03-03T07:20:33.607Z,13.03
2023-03-03T07:23:01.841Z,12.73
2023-03-03T07:25:33.677Z,12.50
2023-03-03T07:28:13.486Z,12.33
2023-03-03T07:30:43.317Z,13.20
2023-03-03T07:33:25.657Z,11.20
2023-03-03T07:35:56.626Z,12.23
2023-03-03T07:38:40.140Z,12.07
2023-03-03T07:41:15.647Z,10.97
2023-03-03T07:43:55.077Z,10.73
2023-03-03T07:46:42.724Z,11.10
2023-03-03T07:49:22.721Z,12.33
2023-03-03T07:51:55.080Z,10.80
2023-03-03T07:54:31.317Z,11.43
2023-03-03T07:57:03.268Z,11.20
2023-03-03T07:59:38.144Z,9.83
2023-03-03T08:02:18.029Z,9.97
2023-03-03T08:04:50.936Z,10.93
2023-03-03T08:07:20.869Z,23.17
2023-03-03T08:09:51.137Z,11.70
2023-03-03T08:12:41.998Z,10.97
2023-03-03T08:15:35.215Z,11.27
2023-03-03T08:18:05.380Z,11.57
2023-03-03T08:20:53.257Z,10.33
2023-03-03T08:23:22.808Z,11.20
2023-03-03T08:25:52.289Z,9.70
2023-03-03T08:28:21.114Z,10.17
2023-03-03T08:30:52.130Z,8.83
2023-03-03T08:33:21.284Z,9.23
2023-03-03T08:35:49.814Z,9.80
2023-03-03T08:38:19.625Z,9.47
2023-03-03T08:40:47.935Z,10.00
2023-03-03T08:43:17.424Z,9.17
2023-03-03T08:45:47.350Z,8.47
2023-03-03T08:48:17.357Z,8.37
2023-03-03T08:50:46.238Z,8.60
2023-03-03T08:53:15.384Z,7.73
2023-03-03T08:55:43.673Z,7.87
2023-03-03T08:58:11.908Z,8.10
2023-03-03T09:00:40.856Z,8.27
2023-03-03T09:03:09.441Z,7.47
2023-03-03T09:09:26.581Z,7.03
2023-03-03T09:11:59.302Z,6.93
2023-03-03T09:14:30.097Z,6.80
2023-03-03T09:16:58.839Z,7.33
2023-03-03T09:19:30.712Z,7.10
2023-03-03T09:22:13.005Z,7.77
2023-03-03T09:24:44.029Z,7.43
2023-03-03T09:27:20.444Z,7.63
2023-03-03T09:29:48.606Z,6.73
2023-03-03T09:32:34.803Z,6.87
2023-03-03T09:35:37.153Z,6.63
2023-03-03T09:38:21.735Z,19.30
2023-03-03T09:41:05.445Z,20.67
2023-03-03T09:43:42.015Z,12.17
2023-03-03T09:46:18.532Z,9.43
2023-03-03T09:48:59.224Z,7.40
2023-03-03T09:51:53.914Z,6.77
2023-03-03T09:54:44.192Z,6.10
2023-03-03T09:57:17.060Z,6.63
2023-03-03T09:59:58.498Z,5.90
2023-03-03T10:02:35.147Z,6.27
2023-03-03T10:05:35.107Z,6.13
2023-03-03T10:08:18.666Z,7.30
2023-03-03T10:11:02.987Z,6.77
2023-03-03T10:13:43.246Z,6.63
2023-03-03T10:16:23.743Z,6.77
2023-03-03T10:18:57.105Z,6.70
2023-03-03T10:21:28.542Z,7.43
2023-03-03T10:24:01.961Z,7.17
2023-03-03T10:27:05.454Z,8.33
2023-03-03T10:29:44.595Z,7.60
2023-03-03T10:32:31.477Z,6.97
2023-03-03T10:35:20.727Z,7.60
2023-03-03T10:37:57.574Z,6.63
2023-03-03T10:40:32.941Z,7.60
2023-03-03T10:43:29.722Z,7.70
2023-03-03T10:46:23.396Z,8.33
2023-03-03T10:49:14.774Z,8.10
2023-03-03T10:51:56.680Z,7.53
2023-03-03T10:54:41.110Z,9.00
2023-03-03T10:57:17.664Z,8.53
2023-03-03T11:00:00.981Z,8.57
2023-03-03T11:02:39.600Z,7.90
2023-03-03T11:05:31.482Z,7.57
2023-03-03T11:08:05.051Z,8.17
2023-03-03T11:10:48.232Z,9.60
2023-03-03T11:13:25.033Z,9.60
2023-03-03T11:16:14.880Z,9.77
2023-03-03T11:18:59.835Z,9.60
2023-03-03T11:21:34.216Z,9.40
2023-03-03T11:24:12.620Z,10.53
2023-03-03T11:27:01.192Z,10.57
2023-03-03T11:29:45.129Z,10.50
2023-03-03T11:32:24.772Z,11.00
2023-03-03T11:35:06.315Z,10.07
2023-03-03T11:37:44.022Z,10.10
2023-03-03T11:40:18.454Z,10.17
2023-03-03T11:43:01.432Z,10.40
2023-03-03T11:45:35.364Z,10.60
2023-03-03T11:48:13.956Z,10.10
2023-03-03T11:50:53.741Z,11.27
2023-03-03T11:53:43.940Z,12.50
2023-03-03T11:56:24.102Z,10.10
2023-03-03T11:59:04.182Z,10.03
2023-03-03T12:01:37.932Z,10.27
2023-03-03T12:04:11.734Z,10.40
2023-03-03T12:06:53.469Z,11.00
2023-03-03T12:09:34.264Z,12.07
2023-03-03T12:12:08.275Z,10.87
2023-03-03T12:14:58.214Z,10.97
2023-03-03T12:17:50.642Z,9.67
2023-03-03T12:20:26.821Z,10.90
2023-03-03T12:23:09.635Z,10.77
2023-03-03T12:25:41.833Z,9.60
2023-03-03T12:28:17.789Z,11.20
2023-03-03T12:31:18.088Z,10.77
2023-03-03T12:33:58.410Z,10.73
2023-03-03T12:36:51.261Z,9.80
2023-03-03T12:39:35.557Z,11.20
2023-03-03T12:42:12.519Z,11.27
2023-03-03T12:44:45.846Z,10.90
2023-03-03T12:47:22.273Z,11.43
2023-03-03T12:50:08.114Z,10.50
2023-03-03T12:52:45.384Z,10.73
2023-03-03T12:55:22.527Z,10.40
2023-03-03T12:58:00.278Z,10.70
2023-03-03T13:00:38.605Z,10.73
2023-03-03T13:03:15.160Z,10.60
2023-03-03T13:05:54.207Z,10.53
2023-03-03T13:08:33.487Z,11.37
2023-03-03T13:11:15.435Z,12.00
2023-03-03T13:13:50.436Z,11.03
2023-03-03T13:16:38.952Z,11.93
2023-03-03T13:19:13.678Z,10.73
2023-03-03T13:21:49.054Z,10.63
2023-03-03T13:24:23.026Z,11.07
2023-03-03T13:26:58.645Z,11.17
2023-03-03T13:29:28.854Z,11.60
2023-03-03T13:32:00.967Z,11.23
2023-03-03T13:34:40.404Z,11.50
2023-03-03T13:37:16.681Z,11.87
2023-03-03T13:39:57.123Z,11.80
2023-03-03T13:42:33.860Z,11.73
2023-03-03T13:45:08.226Z,11.63
2023-03-03T13:47:42.626Z,12.10
2023-03-03T13:50:21.117Z,11.43
2023-03-03T13:53:04.420Z,11.13
2023-03-03T13:55:37.669Z,11.90
2023-03-03T13:58:21.142Z,10.50
2023-03-03T14:00:58.995Z,11.60
2023-03-03T14:04:07.105Z,11.17
2023-03-03T14:06:37.858Z,11.30
2023-03-03T14:09:28.198Z,12.13
2023-03-03T14:12:03.956Z,12.50
2023-03-03T14:14:47.047Z,11.80
2023-03-03T14:17:26.022Z,11.63
2023-03-03T14:20:03.782Z,10.93
2023-03-03T14:22:43.541Z,10.10
2023-03-03T14:25:13.886Z,10.43
2023-03-03T14:27:55.321Z,9.70
2023-03-03T14:30:43.673Z,10.30
2023-03-03T14:33:21.799Z,9.67
2023-03-03T14:36:06.754Z,10.47
2023-03-03T14:38:46.724Z,10.30
2023-03-03T14:41:20.797Z,10.30
2023-03-03T14:43:59.775Z,10.00
2023-03-03T14:46:47.515Z,10.37
2023-03-03T14:49:29.697Z,10.03
2023-03-03T14:52:04.031Z,10.40
2023-03-03T14:54:39.872Z,9.47
2023-03-03T14:57:14.392Z,9.27
2023-03-03T15:00:00.592Z,10.00
2023-03-03T15:02:42.324Z,10.30
2023-03-03T15:05:20.633Z,9.47
2023-03-03T15:07:54.705Z,9.47
2023-03-03T15:10:35.254Z,9.73
2023-03-03T15:13:32.238Z,9.33
2023-03-03T15:16:10.220Z,9.23
2023-03-03T15:19:01.678Z,11.23
2023-03-03T15:21:32.985Z,9.93
2023-03-03T15:24:07.678Z,11.07
2023-03-03T15:26:45.659Z,10.03
2023-03-03T15:29:18.387Z,11.37
2023-03-03T15:31:53.529Z,10.17
2023-03-03T15:34:39.033Z,10.53
2023-03-03T15:37:19.415Z,11.30
2023-03-03T15:39:56.256Z,11.63
2023-03-03T15:42:35.693Z,10.47
2023-03-03T15:45:16.098Z,10.70
2023-03-03T15:48:04.082Z,10.50
2023-03-03T15:50:45.407Z,10.73
2023-03-03T15:53:27.617Z,10.50
2023-03-03T15:56:13.554Z,9.90
2023-03-03T15:58:59.625Z,10.47
2023-03-03T16:01:31.744Z,10.03
2023-03-03T16:04:02.339Z,10.33
2023-03-03T16:06:40.736Z,11.60
2023-03-03T16:09:21.278Z,11.07
2023-03-03T16:11:53.719Z,9.87
2023-03-03T16:14:45.751Z,10.27
2023-03-03T16:17:25.445Z,10.53
2023-03-03T16:20:04.286Z,10.27
2023-03-03T16:22:50.515Z,10.97
2023-03-03T16:25:35.718Z,11.77
2023-03-03T16:28:09.944Z,10.13
2023-03-03T16:30:47.749Z,11.17
2023-03-03T16:33:22.398Z,11.13
2023-03-03T16:35:59.810Z,11.10
2023-03-03T16:38:37.642Z,11.37
2023-03-03T16:41:12.140Z,10.57
2023-03-03T16:43:51.872Z,10.63
2023-03-03T16:46:33.086Z,11.27
2023-03-03T16:49:09.872Z,11.67
2023-03-03T16:51:48.793Z,10.67
2023-03-03T16:54:27.159Z,10.50
2023-03-03T16:57:10.088Z,11.60
2023-03-03T16:59:49.728Z,11.23
2023-03-03T17:02:44.888Z,11.87
2023-03-03T17:05:26.143Z,10.90
2023-03-03T17:08:06.607Z,11.70
2023-03-03T17:10:44.092Z,10.33
2023-03-03T17:13:46.184Z,11.37
2023-03-03T17:16:22.745Z,11.43
2023-03-03T17:19:06.596Z,10.97
2023-03-03T17:21:45.203Z,11.17
2023-03-03T17:24:24.625Z,11.23
2023-03-03T17:27:11.732Z,11.97
2023-03-03T17:29:56.349Z,11.20
2023-03-03T17:32:49.104Z,11.43
2023-03-03T17:35:28.591Z,10.07
2023-03-03T17:38:06.696Z,11.60
2023-03-03T17:40:56.735Z,11.43
2023-03-03T17:43:33.424Z,12.43
2023-03-03T17:46:05.971Z,11.70
2023-03-03T17:49:04.693Z,12.63
2023-03-03T17:51:57.162Z,11.73
2023-03-03T17:54:50.340Z,11.57
2023-03-03T17:57:32.932Z,12.33
2023-03-03T18:00:23.577Z,13.17
2023-03-03T18:03:18.943Z,11.63
2023-03-03T18:06:25.120Z,12.27
2023-03-03T18:09:18.841Z,12.67
2023-03-03T18:12:01.462Z,13.03
2023-03-03T18:14:58.414Z,11.57
2023-03-03T18:17:41.198Z,11.50
2023-03-03T18:20:45.200Z,12.73
2023-03-03T18:23:34.172Z,11.83
2023-03-03T18:26:04.291Z,12.23
2023-03-03T18:28:46.640Z,11.93
2023-03-03T18:31:25.594Z,12.07
2023-03-03T18:34:08.608Z,12.67
2023-03-03T18:36:54.139Z,11.50
2023-03-03T18:39:41.211Z,11.83
2023-03-03T18:42:30.572Z,12.13
2023-03-03T18:45:11.166Z,12.77
2023-03-03T18:48:01.361Z,11.70
2023-03-03T18:50:36.557Z,11.30
2023-03-03T18:53:17.380Z,12.87
2023-03-03T18:55:48.141Z,11.30
2023-03-03T18:58:38.186Z,12.23
2023-03-03T19:01:37.864Z,13.03
2023-03-03T19:04:25.261Z,12.30
2023-03-03T19:07:26.881Z,13.50
2023-03-03T19:10:01.855Z,12.97
2023-03-03T19:12:51.649Z,14.20
2023-03-03T19:15:45.789Z,13.17
2023-03-03T19:18:20.038Z,13.87
2023-03-03T19:20:54.259Z,13.70
2023-03-03T19:23:28.643Z,13.50
2023-03-03T19:26:32.288Z,13.13
2023-03-03T19:29:08.743Z,13.07
2023-03-03T19:31:45.511Z,13.43
2023-03-03T19:34:20.258Z,13.40
2023-03-03T19:37:08.982Z,12.97
2023-03-03T19:39:52.599Z,13.30
2023-03-03T19:42:33.964Z,13.17
2023-03-03T19:45:28.903Z,12.70
2023-03-03T19:48:08.586Z,12.53
2023-03-03T19:50:46.694Z,12.87
2023-03-03T19:53:26.505Z,13.80
2023-03-03T19:56:18.552Z,13.23
2023-03-03T19:58:57.793Z,12.60
2023-03-03T20:01:35.189Z,12.63
2023-03-03T20:04:32.136Z,13.13
2023-03-03T20:07:09.069Z,13.83
2023-03-03T20:09:45.213Z,12.93
2023-03-03T20:12:39.170Z,12.67
2023-03-03T20:15:15.202Z,13.23
2023-03-03T20:17:55.689Z,13.10
2023-03-03T20:20:41.421Z,13.20
2023-03-03T20:23:18.493Z,12.43
2023-03-03T20:25:50.368Z,12.53
2023-03-03T20:28:38.240Z,13.40
2023-03-03T20:31:12.973Z,12.57
2023-03-03T20:33:53.423Z,14.17
2023-03-03T20:36:31.824Z,12.87
2023-03-03T20:39:08.423Z,13.63
2023-03-03T20:41:53.813Z,12.83
2023-03-03T20:44:36.571Z,11.97
2023-03-03T20:47:11.812Z,12.90
2023-03-03T20:50:05.526Z,12.40
2023-03-03T20:52:43.236Z,12.37
2023-03-03T20:55:20.490Z,12.30
2023-03-03T20:57:54.978Z,11.17
2023-03-03T21:00:33.982Z,10.67
2023-03-03T21:03:12.141Z,11.17
2023-03-03T21:05:56.760Z,10.77
2023-03-03T21:08:42.725Z,11.40
2023-03-03T21:11:11.702Z,10.90
2023-03-03T21:13:41.474Z,11.23
2023-03-03T21:16:17.486Z,10.90
2023-03-03T21:18:58.302Z,10.93
2023-03-03T21:21:27.435Z,11.20
2023-03-03T21:23:55.585Z,10.40
2023-03-03T21:26:46.355Z,11.73
2023-03-03T21:29:22.372Z,10.90
2023-03-03T21:31:54.397Z,11.30
2023-03-03T21:34:26.469Z,10.80
2023-03-03T21:36:56.324Z,10.83
2023-03-03T21:39:27.847Z,10.90
2023-03-03T21:41:58.582Z,10.90
2023-03-03T21:44:35.200Z,11.83
2023-03-03T21:47:06.082Z,10.20
2023-03-03T21:49:34.946Z,10.17
2023-03-03T21:52:03.832Z,10.70
2023-03-03T21:54:32.062Z,11.40
2023-03-03T21:57:00.265Z,10.93
2023-03-03T21:59:28.522Z,11.57
2023-03-03T22:01:56.703Z,10.43
2023-03-03T22:04:26.506Z,11.93
2023-03-03T22:06:54.599Z,11.57
2023-03-03T22:09:22.933Z,12.40
2023-03-03T22:11:51.195Z,12.07
2023-03-03T22:14:19.366Z,13.07
2023-03-03T22:16:47.667Z,12.70
2023-03-03T22:19:15.900Z,12.83
2023-03-03T22:21:46.688Z,13.93
2023-03-03T22:24:15.095Z,14.17
2023-03-03T22:26:43.174Z,15.10
2023-03-03T22:29:11.260Z,15.90
2023-03-03T22:31:39.568Z,16.43
2023-03-03T22:34:07.765Z,16.73
2023-03-03T22:36:35.844Z,15.67
2023-03-03T22:39:05.431Z,15.83
2023-03-03T22:41:33.765Z,17.87
2023-03-03T22:44:02.030Z,17.63
2023-03-03T22:46:30.180Z,18.23
2023-03-03T22:48:58.418Z,17.93
2023-03-03T22:51:26.659Z,18.97
2023-03-03T22:53:54.842Z,16.43
2023-03-03T22:56:24.321Z,17.90
2023-03-03T22:58:52.614Z,17.20
2023-03-03T23:01:20.613Z,21.43
2023-03-03T23:03:50.177Z,18.13
2023-03-03T23:06:18.229Z,17.70
2023-03-03T23:08:46.216Z,18.60
2023-03-03T23:11:14.244Z,18.07
2023-03-03T23:13:43.668Z,18.07
2023-03-03T23:16:11.758Z,18.30
2023-03-03T23:18:39.922Z,17.40
2023-03-03T23:21:07.999Z,17.90
2023-03-03T23:23:36.071Z,16.77
2023-03-03T23:26:04.164Z,18.43
2023-03-03T23:28:32.299Z,18.60
2023-03-03T23:31:01.852Z,17.73
2023-03-03T23:33:29.991Z,18.53
2023-03-03T23:35:58.064Z,18.70
2023-03-03T23:38:26.103Z,19.17
2023-03-03T23:40:54.413Z,18.10
2023-03-03T23:43:22.753Z,18.37
2023-03-03T23:45:51.000Z,18.83
2023-03-03T23:48:21.469Z,18.20
2023-03-03T23:50:50.483Z,19.27
2023-03-03T23:53:19.506Z,18.50
2023-03-03T23:55:47.867Z,17.70
2023-03-03T23:58:16.148Z,19.07
